Vichy, MO

2:27 AM CDT on July 25, 2014 (GMT -0500)
Rolla National (KVIH) Elev 1145 ft | 38.13 °N, 91.77 °W | Change Station

Current weather conditions updated 34 minutes ago

Clear
Clear
63 °F
Feels Like 63 °F
N
8
Wind Variable Wind from SSE

Today is forecast to be Much Warmer than yesterday.

Today
High -- | Low -- °F
--% Chance of Precip.
Yesterday
High -- | Low -- °F
Precip. -- in
6:03 AM 8:22 PM
Waning Crescent, 2% visible
Pressure 30.00 in
Visibility 10.0 miles
Clouds Clear
Dew Point 54 °F
Humidity 72%
Rainfall 0.00 in
Snow Depth Not available.
UV 0 out of 12
Pollen 5.70 out of 12
Air Quality Not available.
Flu Activity Not available.
METAR KVIH 250653Z AUTO 15007KT 10SM CLR 17/12 A3003 RMK AO2 SLP158 T01720122

More Conditions Fewer Conditions

Pressure 30.00 in
Visibility 10.0 miles
Clouds Clear
Dew Point 54 °F
Humidity 72%
Rainfall 0.00 in
Snow Depth Not available.
UV 0 out of 12
Pollen 5.70 out of 12
Air Quality Not available.
Flu Activity Not available.
METAR KVIH 250653Z AUTO 15007KT 10SM CLR 17/12 A3003 RMK AO2 SLP158 T01720122

More Conditions Fewer Conditions

10-Day Weather Forecast

Almanac

Astronomy

Jul. 25, 2014 Rise Set
Actual Time 6:03 AM CDT 8:22 PM CDT
Civil Twilight 5:34 AM CDT 8:52 PM CDT
Nautical Twilight 4:57 AM CDT 9:29 PM CDT
Astronomical Twilight 4:16 AM CDT 10:09 PM CDT
Moon 5:03 AM CDT 7:20 PM CDT
Length of Visible Light 15h 18m
Length of Day
14h 18m
Tomorrow will be 1m 38s shorter.
Waning Crescent, 2% of the Moon is Illuminated
Today
Waning Crescent
Jul 26
New
Aug 3
First Quarter
Aug 10
Full
Aug 17
Last Quarter

Today's Extremes

State Highs State Lows

Community

WunderPhotos

Upload Photos

1,737,272 photos uploaded!

Nearby

Snow Depth

Station Depth Elevation
No new snow has been reported.

Earthquake Activity

City Distance Mag. Time & Date
No recent earthquake activity has been reported nearby.
Minimum magnitude displayed is 2.5.

Coastal Water Temperatures

Place Temperature
No Stations Reporting

Nearby Weather Stations

Station Location Temp. Dew Point Humidity Wind Precip. Elev Updated Type
Old Silo Estates, Rolla, MO 64.0 °F 56 °F 75% SSE  at  2.0 mph 0.00 in / hr 984 ft 2:27 AM CDT Rapid Fire
Vienna, MO, Vienna, MO 61.3 °F 56 °F 84% NNE  at  0.0 mph - / hr 830 ft 2:25 AM CDT Normal
Rolla, Rolla, MO 62.0 °F 54 °F 74% ENE  at  0.0 mph 0.00 in / hr 1164 ft 2:27 AM CDT Rapid Fire
College Hills, Rolla, MO 61.3 °F 55 °F 81% SE  at  0.0 mph 0.00 in / hr 1122 ft 2:27 AM CDT Normal
Rolla, Rolla, MO 63.1 °F 44 °F 49% North  at  0.0 mph 0.00 in / hr 1043 ft 2:20 AM CDT Normal
Downtown, Dixon, MO 64.4 °F 52 °F 63% SSE  at  5.3 mph 0.00 in / hr 1168 ft 2:27 AM CDT Rapid Fire
Rural Crawford County, Steelville, MO 59.4 °F 56 °F 88% ENE  at  0.0 mph - / hr 1060 ft 1:00 AM CDT Rapid Fire
Klebba Drive, Linn, MO 64.9 °F 55 °F 71% SSE  at  2.0 mph 0.00 in / hr 935 ft 2:25 AM CDT Normal

Show More Stations Show Fewer Stations